• Join FlightAware (Why Join?)
  • Login
  • US Flag 
10:35PM EDT


 

Airport Tracker/Info


-or-


 

Live Flight TrackerFlight Track Log ✈ CTL18 ✈ 22-May-2013 ✈ KMBS - KYIP

Flight Track Log - Related Links

Times and Time Zones

All times are in EDT time to prevent confusion due to time zone crossing. See the CTL18 flight status page for this flight to view local times or setup timezone preferences in your user account.

Time Position Orientation Groundspeed Altitude Reporting Facility
EDT Latitude Longitude Course Direction KTS MPH feet Rate Location/Type
07:47PM 43.3619 -84.0057 160° South  Level Estimated
07:48PM 43.3366 -83.9838 148° Southeast  Level FlightAware Approximate
07:49PM 43.3080 -83.9718 160° South  Level Estimated
07:50PM 43.2807 -83.9553 156° South  Level FlightAware Approximate
07:51PM 43.2533 -83.9388 156° South  Level FlightAware Approximate
07:52PM 43.2247 -83.9271 163° South  Level Estimated
07:53PM 43.1965 -83.9134 161° South  Level FlightAware Approximate
07:54PM 43.1683 -83.8997 161° South  Level FlightAware Approximate
07:54PM 42.9386 -83.7908 159° South 177 204 5,100  Level Cleveland Center
07:55PM 43.1401 -83.8861 161° South  Level FlightAware Approximate
07:55PM 42.8956 -83.7658 157° South 171 197 5,100  Level Cleveland Center
07:56PM 43.1115 -83.8746 160° South  Level Estimated
07:56PM 42.8503 -83.7467 163° South 168 193 5,200  Level Cleveland Center
07:57PM 43.0835 -83.8603 160° South  Level FlightAware Approximate
07:57PM 42.8006 -83.7328 168° South 164 189 5,200  Level Cleveland Center
07:58PM 43.0555 -83.8461 160° South  Level FlightAware Approximate
07:58PM 42.7594 -83.7108 159° South 173 199 5,100  Level Cleveland Center
07:59PM 43.0275 -83.8318 160° South  Level FlightAware Approximate
07:59PM 42.7081 -83.6886 162° South 169 194 5,100  Level Cleveland Center
08:00PM 42.6689 -83.6669 158° South 171 197 4,800 -420 Descending Cleveland Center
08:01PM 42.6194 -83.6475 164° South 182 209 4,400 -480 Descending Cleveland Center
08:02PM 42.5678 -83.6308 167° South 185 213 3,900 -600 Descending Cleveland Center
08:03PM 42.5183 -83.6117 164° South 190 219 3,200 -480 Descending Cleveland Center
08:05PM 42.4625 -83.5892 163° South 175 201 2,900 -300 Descending Cleveland Center
08:06PM 42.4131 -83.5700 164° South 176 203 2,600 -180 Descending Cleveland Center
08:07PM 42.3694 -83.5594 170° South 174 200 2,600 -120 Level Cleveland Center
08:08PM 42.3242 -83.5378 161° South 155 178 2,400 -360 Descending Cleveland Center
08:09PM 42.2850 -83.5189 160° South 146 168 1,900 -660 Descending Cleveland Center
08:10PM 42.2517 -83.5203 182° South 108 124 1,100 -840 Descending Cleveland Center
08:12PM 42.2333 -83.5167 160° South  Level FlightAware Approximate
08:19PM 42.2393 -83.5310 160° South  Level Estimated